Time;durP1;ratioP1;P1;durP2;ratioP2;P2;SDS_P1;SDS_P2;PMS_P1;PMS_P2;Temp;Humidity;BMP_temperature;BMP_pressure;BME280_temperature;BME280_humidity;BME280_pressure;Samples;Min_cycle;Max_cycle;Signal;HPM_P1;HPM_P2
2023/11/29 00:00:21;;;;;;;6.43;2.72;;;;;;;-3.50;67.81;99168.97;5024014;28;20151;-37
2023/11/29 00:02:47;;;;;;;2.88;1.63;;;;;;;-3.32;67.60;99181.91;5023557;28;20065;-36
2023/11/29 00:05:13;;;;;;;5.88;2.42;;;;;;;-3.58;67.44;99140.94;5028519;28;20041;-37
2023/11/29 00:07:45;;;;;;;6.80;2.85;;;;;;;-3.45;67.41;99185.13;5024203;28;20083;-36
2023/11/29 00:10:12;;;;;;;3.50;2.20;;;;;;;-3.49;67.12;99179.16;5020805;28;20049;-38
2023/11/29 00:12:38;;;;;;;4.93;2.35;;;;;;;-3.47;67.21;99181.72;5027681;28;20034;-37
2023/11/29 00:15:05;;;;;;;4.43;2.03;;;;;;;-3.66;67.49;99152.66;5024075;28;20536;-38
2023/11/29 00:17:33;;;;;;;5.00;2.30;;;;;;;-3.50;66.92;99184.19;5027589;28;20188;-38
2023/11/29 00:20:00;;;;;;;5.13;2.17;;;;;;;-3.45;67.29;99192.75;5028496;28;20068;-36
2023/11/29 00:22:27;;;;;;;2.45;1.60;;;;;;;-3.48;66.73;99193.56;5011702;28;20468;-37
2023/11/29 00:24:53;;;;;;;6.78;2.33;;;;;;;-3.46;66.73;99193.59;5022650;28;20048;-37
2023/11/29 00:27:19;;;;;;;4.97;2.65;;;;;;;-3.73;66.90;99140.72;5027355;28;20509;-36
2023/11/29 00:29:45;;;;;;;4.30;1.85;;;;;;;-3.40;66.58;99188.56;5027527;28;20045;-37
2023/11/29 00:32:11;;;;;;;4.50;2.72;;;;;;;-3.57;66.72;99162.09;5060535;28;20041;-37
2023/11/29 00:34:37;;;;;;;3.03;1.95;;;;;;;-3.30;66.30;99200.59;5026320;28;20073;-37
2023/11/29 00:37:04;;;;;;;3.30;1.95;;;;;;;-3.42;65.63;99198.72;5025990;28;20041;-37
2023/11/29 00:39:31;;;;;;;2.67;1.40;;;;;;;-3.42;65.50;99203.81;5041559;28;20524;-37
2023/11/29 00:41:57;;;;;;;2.75;1.75;;;;;;;-3.47;65.34;99196.97;5029386;28;20421;-37
2023/11/29 00:44:23;;;;;;;3.85;2.00;;;;;;;-3.45;65.42;99200.34;5009138;28;20045;-37
2023/11/29 00:46:49;;;;;;;5.68;2.25;;;;;;;-3.39;65.55;99210.63;5038302;28;20037;-37
2023/11/29 00:49:18;;;;;;;3.75;2.28;;;;;;;-3.44;65.39;99214.78;5027490;28;20041;-36
2023/11/29 00:51:45;;;;;;;4.15;1.10;;;;;;;-3.54;65.11;99212.94;5027230;28;20037;-38
2023/11/29 00:54:12;;;;;;;3.95;1.80;;;;;;;-3.82;65.23;99172.75;5023615;28;20136;-37
2023/11/29 00:56:38;;;;;;;4.25;2.17;;;;;;;-3.52;65.31;99207.06;5025044;28;20045;-37
2023/11/29 00:59:06;;;;;;;3.50;1.88;;;;;;;-3.37;65.40;99218.25;5026154;28;20041;-36
2023/11/29 01:01:32;;;;;;;3.95;1.83;;;;;;;-3.44;65.14;99210.56;5026341;28;20161;-37
2023/11/29 01:04:00;;;;;;;3.20;2.13;;;;;;;-3.44;64.95;99227.47;5027975;28;20060;-37
2023/11/29 01:06:27;;;;;;;1.90;1.30;;;;;;;-3.66;64.55;99195.84;5025492;28;20057;-37
2023/11/29 01:08:54;;;;;;;2.75;1.50;;;;;;;-3.63;64.86;99212.81;5025669;28;20045;-37
2023/11/29 01:11:23;;;;;;;2.63;1.40;;;;;;;-3.62;65.17;99228.09;5024011;28;20072;-37
2023/11/29 01:13:50;;;;;;;2.75;1.27;;;;;;;-3.74;64.80;99207.59;5027293;28;20095;-37
2023/11/29 01:16:17;;;;;;;3.85;1.80;;;;;;;-3.65;64.97;99227.16;5026637;28;20041;-38
2023/11/29 01:18:43;;;;;;;2.97;1.70;;;;;;;-3.63;65.31;99230.59;5008114;28;20037;-37
2023/11/29 01:21:14;;;;;;;3.75;1.95;;;;;;;-3.63;64.61;99220.44;5010388;28;20420;-36
2023/11/29 01:23:40;;;;;;;3.30;1.92;;;;;;;-3.55;65.44;99219.72;5027031;28;20064;-35
2023/11/29 01:26:06;;;;;;;4.00;1.77;;;;;;;-3.58;65.08;99219.69;5026893;28;20045;-36
2023/11/29 01:28:33;;;;;;;4.07;2.20;;;;;;;-3.57;65.66;99215.47;5027301;28;20045;-36
2023/11/29 01:31:07;;;;;;;6.13;2.15;;;;;;;-3.37;65.46;99216.59;5025664;28;20038;-37
2023/11/29 01:33:35;;;;;;;5.28;2.28;;;;;;;-3.24;65.38;99231.16;5039402;28;20945;-37
2023/11/29 01:36:19;;;;;;;6.40;2.50;;;;;;;-3.16;65.15;99223.63;5025964;28;20045;-38
2023/11/29 01:38:45;;;;;;;4.72;2.60;;;;;;;-3.10;65.07;99216.94;5027134;28;20045;-36
2023/11/29 01:41:11;;;;;;;3.33;1.48;;;;;;;-3.17;65.07;99191.41;5037384;28;20402;-37
2023/11/29 01:43:36;;;;;;;4.70;2.45;;;;;;;-3.35;65.03;99170.88;5026871;28;20056;-37
2023/11/29 01:46:03;;;;;;;4.35;1.83;;;;;;;-3.00;65.02;99215.38;5009704;28;20047;-37
2023/11/29 01:48:30;;;;;;;4.40;2.30;;;;;;;-3.15;64.79;99197.38;5027361;28;20037;-37
2023/11/29 01:50:57;;;;;;;3.13;1.85;;;;;;;-2.97;64.72;99224.69;5039049;28;21526;-38
2023/11/29 01:53:24;;;;;;;4.85;2.38;;;;;;;-2.95;64.53;99233.22;5025780;28;20456;-37
2023/11/29 01:55:52;;;;;;;3.25;1.45;;;;;;;-3.03;64.09;99226.34;5010370;28;20080;-37
2023/11/29 01:58:23;;;;;;;3.15;1.85;;;;;;;-3.15;63.81;99226.19;4990856;28;20041;-37
2023/11/29 02:00:50;;;;;;;3.85;1.48;;;;;;;-3.18;63.64;99222.75;5024970;28;20044;-37
2023/11/29 02:03:18;;;;;;;2.97;1.27;;;;;;;-3.23;63.59;99224.38;5025780;28;20513;-37
2023/11/29 02:05:44;;;;;;;5.32;1.60;;;;;;;-3.22;64.19;99229.50;5025814;28;20049;-37
2023/11/29 02:08:11;;;;;;;4.35;2.00;;;;;;;-3.24;64.02;99230.28;5027430;28;20052;-37
2023/11/29 02:10:38;;;;;;;3.45;1.92;;;;;;;-3.20;63.94;99225.28;5010441;28;20041;-36
2023/11/29 02:13:05;;;;;;;4.68;2.13;;;;;;;-3.21;64.41;99225.25;5024845;28;20046;-37
2023/11/29 02:15:31;;;;;;;4.38;1.98;;;;;;;-3.28;64.30;99226.84;5025055;28;20029;-38
2023/11/29 02:17:57;;;;;;;3.97;2.22;;;;;;;-3.32;64.64;99214.09;5002680;28;20092;-36
2023/11/29 02:20:25;;;;;;;5.75;2.17;;;;;;;-3.56;64.92;99168.91;5026382;28;20041;-37
2023/11/29 02:23:20;;;;;;;6.43;2.50;;;;;;;-3.21;64.68;99218.50;5025230;28;20038;-37
2023/11/29 02:25:46;;;;;;;3.53;1.88;;;;;;;-3.36;64.48;99190.34;5037275;28;20439;-38
2023/11/29 02:28:12;;;;;;;4.53;1.92;;;;;;;-3.23;64.40;99220.16;4992675;28;20635;-36
2023/11/29 02:30:38;;;;;;;3.47;1.92;;;;;;;-3.59;64.15;99173.94;5025362;28;20141;-37
2023/11/29 02:33:05;;;;;;;4.60;1.83;;;;;;;-3.33;64.31;99210.69;5024766;28;20578;-37
2023/11/29 02:35:31;;;;;;;5.00;2.53;;;;;;;-3.23;64.29;99237.94;5025805;28;20041;-37
2023/11/29 02:37:57;;;;;;;3.40;1.98;;;;;;;-3.22;64.43;99234.56;5009290;28;20701;-37
2023/11/29 02:40:24;;;;;;;4.15;2.30;;;;;;;-3.27;64.28;99226.03;5026129;28;20045;-37
2023/11/29 02:42:50;;;;;;;4.22;2.33;;;;;;;-3.28;64.72;99233.63;5024207;28;20034;-37
2023/11/29 02:45:16;;;;;;;4.20;2.00;;;;;;;-3.34;64.50;99233.53;5007452;28;20102;-37
2023/11/29 02:47:42;;;;;;;3.33;2.00;;;;;;;-3.43;64.93;99232.59;5047310;28;20199;-37
2023/11/29 02:50:08;;;;;;;3.78;2.72;;;;;;;-3.45;65.18;99239.31;5025602;28;20124;-39
2023/11/29 02:52:34;;;;;;;3.63;2.35;;;;;;;-3.51;64.98;99241.78;5026329;28;20095;-37
2023/11/29 02:55:00;;;;;;;5.22;2.72;;;;;;;-3.45;65.04;99239.31;5025004;28;20049;-36
2023/11/29 02:57:28;;;;;;;5.45;2.33;;;;;;;-3.46;64.76;99231.72;5026198;28;20049;-37
2023/11/29 02:59:54;;;;;;;2.75;1.55;;;;;;;-3.48;64.63;99243.53;5024376;28;20049;-37
2023/11/29 03:02:20;;;;;;;4.00;2.00;;;;;;;-3.44;64.93;99240.19;5039535;28;20176;-37
2023/11/29 03:04:46;;;;;;;5.82;2.42;;;;;;;-3.45;64.70;99244.41;5025246;28;20115;-37
2023/11/29 03:07:12;;;;;;;3.70;2.00;;;;;;;-3.50;64.54;99237.56;5025445;28;20045;-36
2023/11/29 03:09:38;;;;;;;2.05;1.27;;;;;;;-3.57;64.12;99246.78;5024508;28;20045;-36
2023/11/29 03:12:07;;;;;;;3.53;1.90;;;;;;;-3.61;64.03;99242.47;5025947;28;20087;-36
2023/11/29 03:14:33;;;;;;;3.72;1.73;;;;;;;-3.75;63.92;99221.09;5025437;28;20544;-37
2023/11/29 03:16:59;;;;;;;4.90;2.50;;;;;;;-3.55;64.19;99241.72;5024298;28;20049;-37
2023/11/29 03:19:25;;;;;;;4.80;2.38;;;;;;;-3.54;63.59;99239.22;5025691;28;20619;-36
2023/11/29 03:21:53;;;;;;;7.50;3.03;;;;;;;-3.50;63.25;99235.88;5025064;28;20498;-38
2023/11/29 03:24:19;;;;;;;6.10;2.30;;;;;;;-3.47;63.31;99233.41;5009146;28;20038;-37
2023/11/29 03:26:45;;;;;;;5.43;2.60;;;;;;;-3.36;63.33;99236.09;4991047;28;20516;-37
2023/11/29 03:29:11;;;;;;;4.90;2.80;;;;;;;-3.43;63.56;99214.81;5025718;28;20091;-37
2023/11/29 03:31:37;;;;;;;6.60;3.10;;;;;;;-3.31;63.39;99236.16;5006346;28;20042;-37
2023/11/29 03:34:03;;;;;;;3.75;2.40;;;;;;;-3.36;63.23;99230.16;5026954;28;20513;-38
2023/11/29 03:36:29;;;;;;;5.45;3.40;;;;;;;-3.36;63.34;99231.00;5021383;28;20037;-36
2023/11/29 03:38:55;;;;;;;9.02;3.60;;;;;;;-3.26;63.47;99237.91;5038033;28;20047;-37
2023/11/29 03:41:21;;;;;;;6.82;3.13;;;;;;;-3.19;63.07;99232.06;5029022;28;20044;-37
2023/11/29 03:43:47;;;;;;;5.20;2.88;;;;;;;-3.39;62.94;99199.59;5028646;28;20134;-37
2023/11/29 03:46:12;;;;;;;5.07;2.88;;;;;;;-3.32;62.66;99229.34;5027553;28;20096;-36
2023/11/29 03:48:38;;;;;;;6.18;2.78;;;;;;;-3.46;62.94;99232.56;5023823;28;20061;-37
2023/11/29 03:51:06;;;;;;;7.18;2.80;;;;;;;-3.37;62.90;99241.13;5024869;28;20069;-37
2023/11/29 03:53:31;;;;;;;6.30;2.97;;;;;;;-3.30;62.46;99240.41;5028633;28;20135;-37
2023/11/29 03:55:57;;;;;;;5.72;2.55;;;;;;;-3.36;62.65;99241.16;5033898;28;20093;-38
2023/11/29 03:58:23;;;;;;;3.70;2.45;;;;;;;-3.35;62.32;99247.09;5012053;28;20146;-40
2023/11/29 04:00:49;;;;;;;5.20;2.70;;;;;;;-3.68;62.49;99199.19;5031864;28;20042;-36
2023/11/29 04:03:15;;;;;;;5.22;2.35;;;;;;;-3.43;62.04;99255.47;5028143;28;20052;-38
2023/11/29 04:05:41;;;;;;;6.90;2.70;;;;;;;-3.50;62.09;99243.50;5026826;28;20037;-37
2023/11/29 04:08:11;;;;;;;6.55;3.45;;;;;;;-3.54;62.08;99244.28;5028380;28;20128;-37
2023/11/29 04:10:37;;;;;;;7.03;3.03;;;;;;;-3.48;62.32;99252.00;5027252;28;20049;-37
2023/11/29 04:13:04;;;;;;;5.22;2.60;;;;;;;-3.51;62.33;99261.28;5026699;28;20095;-37
2023/11/29 04:15:29;;;;;;;6.63;3.22;;;;;;;-3.74;61.96;99212.66;5026082;28;20163;-37
2023/11/29 04:17:57;;;;;;;6.55;3.45;;;;;;;-3.44;62.56;99255.44;5027330;28;20556;-37
2023/11/29 04:20:23;;;;;;;8.07;4.00;;;;;;;-3.67;62.36;99229.72;5011805;28;20124;-38
2023/11/29 04:22:49;;;;;;;7.13;4.00;;;;;;;-3.54;62.20;99273.91;5027204;28;20041;-38
2023/11/29 04:25:18;;;;;;;6.97;3.53;;;;;;;-3.73;62.30;99231.31;5025754;28;20049;-38
2023/11/29 04:27:45;;;;;;;6.03;3.45;;;;;;;-3.43;62.36;99277.47;5054650;28;20061;-36
2023/11/29 04:30:11;;;;;;;3.85;2.53;;;;;;;-3.47;62.11;99280.81;5011119;28;20042;-37
2023/11/29 04:32:38;;;;;;;5.82;3.05;;;;;;;-3.49;62.37;99290.94;5025965;28;20070;-37
2023/11/29 04:35:04;;;;;;;5.18;3.20;;;;;;;-3.57;62.14;99278.97;5026486;28;20049;-38
2023/11/29 04:37:31;;;;;;;8.18;3.50;;;;;;;-3.64;61.93;99277.16;5026948;28;20052;-38
2023/11/29 04:39:58;;;;;;;6.43;3.70;;;;;;;-3.83;62.37;99255.69;5010524;28;20033;-37
2023/11/29 04:42:24;;;;;;;6.72;3.58;;;;;;;-3.67;62.61;99295.75;5059825;28;20052;-37
2023/11/29 04:44:50;;;;;;;6.15;3.10;;;;;;;-3.64;62.51;99298.31;5010293;28;20958;-37
2023/11/29 04:47:16;;;;;;;6.20;2.42;;;;;;;-3.68;62.63;99303.34;5051686;28;20124;-37
2023/11/29 04:49:42;;;;;;;7.03;3.50;;;;;;;-3.70;62.91;99304.97;5022719;28;20060;-39
2023/11/29 04:52:08;;;;;;;6.72;2.95;;;;;;;-3.72;62.38;99299.91;5009884;28;20042;-37
2023/11/29 04:54:34;;;;;;;6.95;3.70;;;;;;;-3.82;62.59;99271.78;5026276;28;20041;-37
2023/11/29 04:57:00;;;;;;;7.95;3.55;;;;;;;-3.60;63.02;99307.69;5010801;28;20037;-37
2023/11/29 04:59:26;;;;;;;5.68;3.38;;;;;;;-3.76;62.74;99287.97;5022536;28;20041;-37
2023/11/29 05:01:53;;;;;;;5.43;3.30;;;;;;;-3.89;63.26;99281.00;5003822;28;20509;-37
2023/11/29 05:04:20;;;;;;;4.22;2.97;;;;;;;-3.70;62.99;99308.38;5009288;28;20065;-38
2023/11/29 05:06:46;;;;;;;5.20;3.13;;;;;;;-3.75;62.90;99311.69;5040164;28;20096;-38
2023/11/29 05:09:14;;;;;;;8.35;4.03;;;;;;;-3.96;62.91;99294.41;5026208;28;20046;-37
2023/11/29 05:11:41;;;;;;;7.30;2.95;;;;;;;-4.12;63.20;99275.50;5009471;28;20489;-36
2023/11/29 05:14:07;;;;;;;7.38;3.45;;;;;;;-4.17;63.30;99278.78;5025259;28;20071;-38
2023/11/29 05:16:34;;;;;;;8.10;4.47;;;;;;;-4.04;63.31;99322.22;5028653;28;20034;-38
2023/11/29 05:18:59;;;;;;;9.27;4.00;;;;;;;-4.07;63.27;99323.81;5026462;28;20398;-38
2023/11/29 05:21:27;;;;;;;10.48;5.43;;;;;;;-4.13;63.87;99316.94;5027540;28;20093;-39
2023/11/29 05:23:54;;;;;;;13.80;5.38;;;;;;;-4.14;63.68;99325.41;5025125;28;20049;-39
2023/11/29 05:26:21;;;;;;;7.85;3.92;;;;;;;-4.45;64.12;99293.50;5009433;28;20501;-38
2023/11/29 05:28:47;;;;;;;9.77;4.60;;;;;;;-4.29;63.98;99331.03;5026326;28;20049;-37
2023/11/29 05:31:14;;;;;;;10.20;5.18;;;;;;;-4.27;64.46;99331.94;5009779;28;20046;-37
2023/11/29 05:33:39;;;;;;;8.52;4.57;;;;;;;-4.24;64.68;99333.69;5025578;28;20053;-39
2023/11/29 05:36:06;;;;;;;11.50;5.00;;;;;;;-4.27;64.79;99326.00;5025815;28;20049;-38
2023/11/29 05:38:32;;;;;;;12.55;5.63;;;;;;;-4.22;64.56;99314.25;5021728;28;20045;-37
2023/11/29 05:40:58;;;;;;;16.50;5.70;;;;;;;-4.17;64.61;99319.41;5025896;28;20044;-38
2023/11/29 05:43:24;;;;;;;10.30;4.70;;;;;;;-4.25;64.62;99321.81;5025474;28;20048;-38
2023/11/29 05:45:50;;;;;;;11.65;5.82;;;;;;;-4.26;65.07;99317.56;5026635;28;20056;-37
2023/11/29 05:48:16;;;;;;;13.43;5.50;;;;;;;-4.19;64.75;99314.31;5054032;28;20042;-37
2023/11/29 05:50:42;;;;;;;15.30;4.93;;;;;;;-4.19;65.02;99316.00;5027718;28;20045;-39
2023/11/29 05:53:08;;;;;;;13.00;5.57;;;;;;;-4.39;64.83;99292.78;5025561;28;20064;-36
2023/11/29 05:55:34;;;;;;;10.48;4.53;;;;;;;-4.23;64.98;99319.28;5025600;28;20099;-37
2023/11/29 05:58:01;;;;;;;11.85;4.53;;;;;;;-4.31;65.32;99324.22;5025180;28;20065;-37
2023/11/29 06:00:27;;;;;;;9.38;4.45;;;;;;;-4.28;65.72;99321.75;5025551;28;20484;-38
2023/11/29 06:02:53;;;;;;;12.90;5.22;;;;;;;-4.23;66.08;99310.00;5004366;28;20128;-38
2023/11/29 06:05:18;;;;;;;11.15;5.47;;;;;;;-4.19;65.86;99314.31;5022677;28;20086;-37
2023/11/29 06:07:46;;;;;;;9.02;4.05;;;;;;;-4.12;65.98;99317.81;5024747;28;20060;-38
2023/11/29 06:10:12;;;;;;;11.93;4.50;;;;;;;-4.14;65.73;99310.19;5025829;28;20124;-38
2023/11/29 06:12:38;;;;;;;9.30;4.43;;;;;;;-4.06;65.79;99307.75;5026239;28;20505;-38
2023/11/29 06:15:05;;;;;;;12.23;5.68;;;;;;;-3.93;65.37;99300.41;5012588;28;20048;-38
2023/11/29 06:17:36;;;;;;;10.80;5.32;;;;;;;-3.66;65.73;99294.91;5026638;28;20057;-38
2023/11/29 06:20:11;;;;;;;10.95;5.10;;;;;;;-3.48;65.56;99294.34;5025535;28;20044;-38
2023/11/29 06:22:38;;;;;;;11.57;4.90;;;;;;;-3.46;64.84;99279.97;5025902;28;20049;-39
2023/11/29 06:25:07;;;;;;;14.55;5.05;;;;;;;-3.36;64.82;99288.59;5023871;28;20045;-38
2023/11/29 06:27:35;;;;;;;10.05;4.45;;;;;;;-3.39;64.76;99248.72;5024817;28;20041;-38
2023/11/29 06:30:01;;;;;;;12.68;5.65;;;;;;;-3.07;64.40;99292.38;5024789;28;20041;-39
2023/11/29 06:32:31;;;;;;;13.60;6.30;;;;;;;-3.03;63.98;99291.59;5024376;28;20047;-38
2023/11/29 06:34:57;;;;;;;14.73;5.65;;;;;;;-2.94;64.04;99290.88;5023818;28;20064;-36
2023/11/29 06:37:23;;;;;;;18.52;6.45;;;;;;;-2.83;63.55;99300.34;5025714;28;20410;-39
2023/11/29 06:39:49;;;;;;;13.95;5.75;;;;;;;-2.73;63.49;99302.19;5024176;28;20041;-38
2023/11/29 06:42:16;;;;;;;15.07;6.25;;;;;;;-2.77;63.48;99297.84;5024451;28;20037;-37
2023/11/29 06:44:42;;;;;;;14.90;5.72;;;;;;;-2.79;62.98;99302.09;5023516;28;20037;-36
2023/11/29 06:47:08;;;;;;;13.02;5.47;;;;;;;-2.73;63.06;99288.59;5041651;28;20474;-37
2023/11/29 06:49:34;;;;;;;15.77;6.32;;;;;;;-2.64;62.90;99303.97;5030145;28;20037;-37
2023/11/29 06:52:02;;;;;;;11.18;5.65;;;;;;;-2.58;62.92;99304.03;5029467;28;20045;-39
2023/11/29 06:54:28;;;;;;;13.68;5.93;;;;;;;-2.76;62.73;99271.59;5016906;28;20428;-38
2023/11/29 06:56:55;;;;;;;16.45;6.38;;;;;;;-2.41;62.73;99299.16;5031473;28;20074;-38
2023/11/29 06:59:21;;;;;;;15.07;6.45;;;;;;;-2.36;62.76;99290.72;5014707;28;20069;-39
2023/11/29 07:01:46;;;;;;;16.33;6.70;;;;;;;-2.36;62.42;99278.00;5027196;28;20046;-38
2023/11/29 07:04:12;;;;;;;21.20;7.97;;;;;;;-2.07;62.38;99296.09;5029468;28;20535;-38
2023/11/29 07:06:39;;;;;;;15.07;6.63;;;;;;;-1.94;62.18;99304.72;5024990;28;20060;-38
2023/11/29 07:09:06;;;;;;;12.63;5.68;;;;;;;-1.90;62.17;99298.81;5024319;28;20509;-38
2023/11/29 07:11:36;;;;;;;13.45;5.45;;;;;;;-1.84;61.89;99298.88;5021960;28;20049;-36
2023/11/29 07:14:04;;;;;;;15.00;5.72;;;;;;;-1.95;61.72;99308.09;5022243;28;20061;-37
2023/11/29 07:16:30;;;;;;;12.90;5.63;;;;;;;-1.98;61.35;99300.41;5035167;28;20095;-37
2023/11/29 07:18:56;;;;;;;14.88;6.03;;;;;;;-1.83;61.40;99305.66;5017544;28;20455;-38
2023/11/29 07:21:23;;;;;;;12.60;4.95;;;;;;;-1.80;61.22;99285.31;5033441;28;20075;-37
2023/11/29 07:23:49;;;;;;;16.08;6.78;;;;;;;-1.83;61.23;99306.50;5033429;28;20044;-38
2023/11/29 07:26:15;;;;;;;11.45;5.75;;;;;;;-1.89;60.64;99300.53;5033744;28;20045;-37
2023/11/29 07:28:41;;;;;;;14.48;5.72;;;;;;;-1.86;60.88;99305.63;5040326;28;20045;-38
2023/11/29 07:31:08;;;;;;;11.73;5.45;;;;;;;-1.98;60.66;99300.41;5058129;28;20072;-38
2023/11/29 07:33:35;;;;;;;11.20;5.10;;;;;;;-2.15;60.63;99262.91;5028822;28;20521;-37
2023/11/29 07:36:01;;;;;;;13.30;5.78;;;;;;;-1.84;61.07;99306.50;5028151;28;20222;-39
2023/11/29 07:38:27;;;;;;;13.90;5.60;;;;;;;-1.74;60.88;99306.63;5027029;28;20595;-37
2023/11/29 07:40:53;;;;;;;15.30;7.05;;;;;;;-1.82;60.81;99304.81;5028464;28;20053;-37
2023/11/29 07:43:21;;;;;;;14.93;5.28;;;;;;;-1.98;60.83;99288.53;5029617;28;20103;-38
2023/11/29 07:45:47;;;;;;;16.70;6.50;;;;;;;-1.73;60.77;99307.47;5028645;28;20041;-38
2023/11/29 07:48:13;;;;;;;14.57;5.88;;;;;;;-1.62;60.68;99305.84;5026093;28;20461;-38
2023/11/29 07:50:39;;;;;;;18.10;6.22;;;;;;;-1.53;60.59;99308.47;5006311;28;20042;-38
2023/11/29 07:53:05;;;;;;;13.48;5.53;;;;;;;-1.68;60.40;99274.38;5054226;28;20509;-38
2023/11/29 07:55:31;;;;;;;13.82;5.97;;;;;;;-1.46;60.40;99296.63;5027047;28;20391;-38
2023/11/29 07:57:57;;;;;;;10.65;5.22;;;;;;;-1.44;60.23;99300.91;5025388;28;20045;-39
2023/11/29 08:00:23;;;;;;;14.13;5.47;;;;;;;-1.54;60.12;99291.47;5007235;28;20129;-39
2023/11/29 08:02:49;;;;;;;15.85;7.25;;;;;;;-1.44;59.86;99300.03;5025593;28;20099;-40
2023/11/29 08:05:16;;;;;;;20.08;6.50;;;;;;;-1.36;60.16;99290.75;5027547;28;20045;-40
2023/11/29 08:07:42;;;;;;;11.95;5.63;;;;;;;-1.46;59.90;99289.81;5010459;28;20485;-40
2023/11/29 08:10:08;;;;;;;9.98;6.03;;;;;;;-1.33;61.19;99285.69;5029077;28;20044;-40
2023/11/29 08:12:34;;;;;;;13.52;4.88;;;;;;;-1.32;60.49;99278.03;5027670;28;20139;-39
2023/11/29 08:15:00;;;;;;;11.15;4.97;;;;;;;-1.31;60.31;99281.44;5012858;28;20056;-40
2023/11/29 08:17:26;;;;;;;14.43;5.82;;;;;;;-1.27;60.46;99272.13;5028156;28;20513;-39
2023/11/29 08:19:53;;;;;;;11.80;5.78;;;;;;;-1.20;60.26;99267.03;5028451;28;20043;-41
2023/11/29 08:22:19;;;;;;;16.67;5.78;;;;;;;-1.11;60.60;99263.72;5027690;28;20045;-40
2023/11/29 08:24:45;;;;;;;15.32;5.80;;;;;;;-1.01;60.56;99262.91;5026559;28;20045;-40
2023/11/29 08:27:12;;;;;;;14.88;5.85;;;;;;;-0.94;60.17;99254.41;5022785;28;20175;-40
2023/11/29 08:29:39;;;;;;;13.30;6.20;;;;;;;-0.84;60.56;99257.91;5027587;28;20056;-39
2023/11/29 08:32:06;;;;;;;11.10;5.45;;;;;;;-0.78;60.03;99251.09;5028588;28;20040;-39
2023/11/29 08:34:32;;;;;;;12.48;5.65;;;;;;;-0.77;60.40;99246.84;5027747;28;20592;-40
2023/11/29 08:36:58;;;;;;;13.55;5.63;;;;;;;-0.91;60.08;99246.81;5022419;28;20061;-41
2023/11/29 08:39:26;;;;;;;16.27;6.63;;;;;;;-0.90;60.25;99249.38;4995425;28;20052;-39
2023/11/29 08:41:52;;;;;;;18.65;6.68;;;;;;;-0.81;60.70;99250.25;5049336;28;20038;-40
2023/11/29 08:44:18;;;;;;;18.48;6.32;;;;;;;-0.97;60.42;99213.59;5027639;28;20143;-42
2023/11/29 08:46:45;;;;;;;12.75;5.97;;;;;;;-0.77;60.53;99240.03;5043136;28;20141;-40
2023/11/29 08:49:11;;;;;;;16.42;6.47;;;;;;;-0.93;60.46;99208.50;5024278;28;20124;-39
2023/11/29 08:51:37;;;;;;;16.25;7.13;;;;;;;-0.84;60.77;99222.16;5026110;28;20048;-40
2023/11/29 08:54:04;;;;;;;16.33;5.55;;;;;;;-0.93;60.79;99215.31;5027013;28;20406;-39
2023/11/29 08:56:30;;;;;;;15.32;6.25;;;;;;;-0.77;60.77;99231.53;5028587;28;20045;-40
2023/11/29 08:58:56;;;;;;;13.13;6.35;;;;;;;-0.74;61.38;99244.31;5048322;28;20502;-40
2023/11/29 09:01:22;;;;;;;14.98;6.10;;;;;;;-0.69;61.40;99238.38;5028963;28;20033;-39
2023/11/29 09:03:48;;;;;;;14.45;7.22;;;;;;;-0.67;61.42;99241.78;5026809;28;20052;-39
2023/11/29 09:06:15;;;;;;;15.45;6.00;;;;;;;-0.62;61.38;99237.53;5026230;28;20037;-39
2023/11/29 09:08:42;;;;;;;12.25;5.97;;;;;;;-0.80;61.66;99206.00;5041196;28;20120;-40
2023/11/29 09:11:08;;;;;;;14.55;5.80;;;;;;;-0.67;61.83;99231.56;5009089;28;20045;-39
2023/11/29 09:13:35;;;;;;;13.73;6.10;;;;;;;-0.74;61.76;99212.00;5028367;28;20053;-39
2023/11/29 09:16:02;;;;;;;14.68;6.10;;;;;;;-0.68;61.51;99221.38;5009513;28;20048;-39
2023/11/29 09:18:28;;;;;;;15.60;6.78;;;;;;;-0.79;61.58;99192.41;5028967;28;20047;-39
2023/11/29 09:20:54;;;;;;;16.08;6.53;;;;;;;-0.58;61.40;99223.97;5025799;28;20041;-40
2023/11/29 09:23:20;;;;;;;12.00;5.78;;;;;;;-0.94;61.65;99155.78;5026669;28;20045;-40
2023/11/29 09:25:47;;;;;;;14.25;6.63;;;;;;;-0.54;61.61;99222.25;5025927;28;20041;-39
2023/11/29 09:28:14;;;;;;;12.60;6.65;;;;;;;-0.68;61.24;99196.69;5027017;28;20050;-40
2023/11/29 09:30:40;;;;;;;15.18;5.13;;;;;;;-0.55;61.22;99220.56;5025360;28;20044;-39
2023/11/29 09:33:07;;;;;;;11.80;5.60;;;;;;;-0.58;60.75;99220.56;5024675;28;20042;-40
2023/11/29 09:35:32;;;;;;;13.63;5.75;;;;;;;-0.56;61.12;99216.28;5023304;28;20091;-39
2023/11/29 09:37:58;;;;;;;14.55;6.05;;;;;;;-0.58;60.97;99195.88;5026044;28;20049;-40
2023/11/29 09:40:24;;;;;;;18.80;5.63;;;;;;;-0.59;61.16;99199.28;5025402;28;20763;-42
2023/11/29 09:42:52;;;;;;;16.67;7.07;;;;;;;-0.52;61.15;99215.44;5024632;28;20045;-41
2023/11/29 09:45:26;;;;;;;18.83;6.28;;;;;;;-0.47;61.28;99208.63;4977465;28;20119;-40
2023/11/29 09:47:53;;;;;;;13.82;6.53;;;;;;;-0.38;60.84;99218.03;5006655;28;20034;-40
2023/11/29 09:50:19;;;;;;;15.48;7.03;;;;;;;-0.31;61.03;99201.84;5022328;28;20454;-38
2023/11/29 09:52:46;;;;;;;13.00;6.63;;;;;;;-0.56;60.74;99155.03;5022083;28;20049;-40
2023/11/29 09:55:13;;;;;;;13.43;6.40;;;;;;;-0.51;61.01;99166.09;5022151;28;20045;-38
2023/11/29 09:57:39;;;;;;;13.07;6.30;;;;;;;-0.59;60.91;99153.31;5026323;28;20045;-41
2023/11/29 10:00:08;;;;;;;13.70;5.97;;;;;;;-0.53;60.97;99171.22;5025054;28;20098;-41
2023/11/29 10:02:35;;;;;;;13.90;6.25;;;;;;;-0.36;61.05;99189.09;5024090;28;20044;-41
2023/11/29 10:05:01;;;;;;;15.60;6.40;;;;;;;-0.33;61.21;99194.22;5020336;28;20045;-40
2023/11/29 10:07:29;;;;;;;16.08;7.45;;;;;;;-0.31;61.15;99191.63;5024145;28;20041;-40
2023/11/29 10:10:00;;;;;;;20.88;6.40;;;;;;;-0.30;61.13;99188.25;5027240;28;20045;-39
2023/11/29 10:12:26;;;;;;;15.70;7.03;;;;;;;-0.45;61.15;99153.34;5026076;28;20041;-40
2023/11/29 10:14:53;;;;;;;13.30;5.72;;;;;;;-0.27;61.49;99193.38;5026211;28;20080;-41
2023/11/29 10:17:19;;;;;;;12.18;6.03;;;;;;;-0.38;61.19;99161.88;5025493;28;20151;-41
2023/11/29 10:19:46;;;;;;;16.73;6.15;;;;;;;-0.77;61.50;99112.44;5026534;28;20124;-41
2023/11/29 10:22:19;;;;;;;13.20;6.28;;;;;;;-0.74;62.23;99139.69;5026042;28;20044;-40
2023/11/29 10:24:45;;;;;;;14.30;6.53;;;;;;;-0.79;62.42;99157.53;5025389;28;20033;-41
2023/11/29 10:27:11;;;;;;;15.30;6.93;;;;;;;-0.71;62.87;99190.72;5025223;28;20501;-40
2023/11/29 10:29:37;;;;;;;13.45;6.72;;;;;;;-0.79;63.05;99183.06;5024742;28;20501;-39
2023/11/29 10:32:04;;;;;;;14.13;7.07;;;;;;;-0.79;63.73;99179.66;4994294;28;20049;-40
2023/11/29 10:34:32;;;;;;;15.88;7.22;;;;;;;-0.82;64.35;99166.88;4976183;28;20053;-39
2023/11/29 10:37:00;;;;;;;14.68;6.38;;;;;;;-0.72;64.94;99158.38;5006507;28;20592;-40
2023/11/29 10:39:29;;;;;;;17.20;6.47;;;;;;;-0.66;64.92;99164.38;4997369;28;20044;-37
2023/11/29 10:41:56;;;;;;;17.38;6.75;;;;;;;-0.61;65.18;99155.03;5010955;28;20045;-37
2023/11/29 10:44:28;;;;;;;15.68;7.10;;;;;;;-0.50;65.21;99155.88;5039246;28;20099;-37
2023/11/29 10:46:58;;;;;;;14.05;6.50;;;;;;;-0.37;65.41;99163.56;5023871;28;20045;-36
2023/11/29 10:49:30;;;;;;;14.23;6.82;;;;;;;-0.28;65.48;99158.47;5027709;28;20040;-38
2023/11/29 10:51:56;;;;;;;15.70;6.38;;;;;;;-0.31;65.10;99159.28;5031631;28;20056;-37
2023/11/29 10:54:22;;;;;;;14.32;6.30;;;;;;;-0.51;65.14;99126.09;5033836;28;20037;-39
2023/11/29 10:56:49;;;;;;;14.93;7.30;;;;;;;-0.36;65.65;99145.69;5031281;28;20071;-38
2023/11/29 10:59:25;;;;;;;13.57;6.53;;;;;;;-0.29;65.89;99156.75;5016270;28;20037;-38
2023/11/29 11:01:58;;;;;;;13.48;6.68;;;;;;;-0.35;65.86;99147.38;5033952;28;20577;-38
2023/11/29 11:04:35;;;;;;;14.15;6.32;;;;;;;-0.33;65.93;99132.94;5028674;28;20048;-38
2023/11/29 11:07:04;;;;;;;13.55;6.47;;;;;;;-0.32;66.43;99144.00;5032124;28;20069;-38
2023/11/29 11:09:40;;;;;;;20.65;7.53;;;;;;;-0.29;66.99;99136.31;5029553;28;20529;-38
2023/11/29 11:12:07;;;;;;;12.57;6.80;;;;;;;-0.24;66.90;99132.06;5026840;28;20056;-38
2023/11/29 11:14:36;;;;;;;15.35;6.60;;;;;;;-0.23;67.07;99126.97;4998112;28;20047;-38
2023/11/29 11:17:06;;;;;;;15.30;7.03;;;;;;;-0.20;66.49;99119.28;5048898;28;20068;-38
2023/11/29 11:19:34;;;;;;;15.00;6.40;;;;;;;-0.35;66.81;99083.53;5016800;28;20176;-38
2023/11/29 11:22:02;;;;;;;14.73;6.75;;;;;;;-0.16;66.29;99110.75;5023924;28;20037;-39
2023/11/29 11:24:53;;;;;;;12.75;6.57;;;;;;;-0.12;66.37;99112.50;5023400;28;20048;-39
2023/11/29 11:27:37;;;;;;;12.95;5.88;;;;;;;-0.09;66.17;99107.38;5027958;28;20042;-40